createdAt,value
2022-09-23T11:17:05.939Z,12872.00
2022-09-23T11:18:05.741Z,13020.00
2022-09-23T11:19:05.741Z,13092.00
2022-09-23T11:20:05.716Z,13108.00
2022-09-23T11:21:05.708Z,13176.00
2022-09-23T11:22:05.702Z,13228.00
2022-09-23T11:23:05.684Z,13188.00
2022-09-23T11:24:05.727Z,13212.00
2022-09-23T11:25:05.664Z,13240.00
2022-09-23T11:26:05.628Z,13440.00
2022-09-23T11:27:05.636Z,13544.00
2022-09-23T11:28:05.603Z,13744.00
2022-09-23T11:29:05.866Z,13824.00
2022-09-23T11:30:05.571Z,14104.00
2022-09-23T11:31:05.751Z,14220.00
2022-09-23T11:32:05.556Z,14316.00
2022-09-23T11:33:05.584Z,14440.00
2022-09-23T11:34:05.526Z,14688.00
2022-09-23T11:35:05.506Z,14696.00
2022-09-23T11:36:05.484Z,14640.00
2022-09-23T11:37:05.480Z,14624.00
2022-09-23T11:38:05.470Z,14800.00
2022-09-23T11:39:05.440Z,14812.00
2022-09-23T11:40:05.469Z,14896.00
2022-09-23T11:41:05.472Z,15048.00
2022-09-23T11:42:05.423Z,15252.00
2022-09-23T11:43:05.393Z,15400.00
2022-09-23T11:44:05.462Z,15520.00
2022-09-23T11:45:05.368Z,15720.00
2022-09-23T11:46:05.374Z,16000.00
2022-09-23T11:47:05.345Z,16096.00
2022-09-23T11:48:05.316Z,16320.00
2022-09-23T11:49:05.419Z,16512.00
2022-09-23T11:50:05.297Z,16512.00
2022-09-23T11:51:05.285Z,16544.00
2022-09-23T11:52:05.276Z,16800.00
2022-09-23T11:53:05.250Z,17024.00
2022-09-23T11:54:05.269Z,17248.00
2022-09-23T11:55:13.053Z,17376.00
2022-09-23T11:56:05.219Z,17504.00
2022-09-23T11:57:05.216Z,17632.00
2022-09-23T11:58:07.896Z,17888.00
2022-09-23T11:59:05.392Z,17792.00
2022-09-23T12:00:05.177Z,17824.00
2022-09-23T12:01:05.141Z,18848.00
2022-09-23T12:02:16.322Z,20960.00
2022-09-23T12:03:06.458Z,20640.00
2022-09-23T12:04:17.473Z,21728.00
2022-09-23T12:05:05.202Z,21888.00
2022-09-23T12:06:05.087Z,23840.00
2022-09-23T12:07:05.071Z,21952.00
2022-09-23T12:08:05.075Z,20512.00
2022-09-23T12:09:05.037Z,22592.00
2022-09-23T12:10:05.035Z,30656.00
2022-09-23T12:11:05.009Z,36384.00
2022-09-23T12:12:05.013Z,46144.00
2022-09-23T12:13:05.007Z,44448.00
2022-09-23T12:14:04.972Z,41824.00
2022-09-23T12:15:04.959Z,40672.00
2022-09-23T12:16:04.955Z,35232.00
2022-09-23T12:17:04.953Z,38208.00
2022-09-23T12:18:04.936Z,32704.00
2022-09-23T12:19:04.906Z,28000.00
2022-09-23T12:20:04.894Z,25632.00
2022-09-23T12:21:04.959Z,30208.00
2022-09-23T12:22:04.866Z,32768.00
2022-09-23T12:23:04.865Z,26272.00
2022-09-23T12:24:04.841Z,25376.00
2022-09-23T12:25:04.839Z,23680.00
2022-09-23T12:26:04.828Z,21792.00
2022-09-23T12:27:04.801Z,20448.00
2022-09-23T12:28:04.812Z,20832.00
2022-09-23T12:29:04.778Z,21312.00
2022-09-23T12:30:04.765Z,21472.00
2022-09-23T12:31:04.795Z,21312.00
2022-09-23T12:32:04.740Z,22432.00
2022-09-23T12:33:04.748Z,21088.00
2022-09-23T12:34:04.713Z,17696.00
2022-09-23T12:35:04.701Z,16992.00
2022-09-23T12:36:04.694Z,16224.00
2022-09-23T12:37:04.676Z,15580.00
2022-09-23T12:38:04.682Z,15320.00
2022-09-23T12:39:04.658Z,15276.00
2022-09-23T12:40:04.694Z,15852.00
2022-09-23T12:41:04.625Z,16672.00
2022-09-23T12:42:04.612Z,16736.00
2022-09-23T12:43:04.621Z,18560.00
2022-09-23T12:44:04.585Z,19616.00
2022-09-23T12:45:04.574Z,20896.00
2022-09-23T12:46:04.588Z,22592.00
2022-09-23T12:47:04.563Z,20576.00
2022-09-23T12:48:04.557Z,23616.00
2022-09-23T12:49:04.529Z,26048.00
2022-09-23T12:50:04.518Z,26048.00
2022-09-23T12:51:04.507Z,26208.00
2022-09-23T12:52:04.482Z,28000.00
2022-09-23T12:53:04.497Z,28384.00
2022-09-23T12:54:04.459Z,26240.00
2022-09-23T12:55:04.444Z,23456.00
2022-09-23T12:56:04.441Z,23552.00
2022-09-23T12:57:04.420Z,22208.00
2022-09-23T12:58:04.425Z,23072.00
2022-09-23T12:59:04.405Z,24576.00
2022-09-23T13:00:04.387Z,25792.00
2022-09-23T13:01:04.442Z,23264.00
2022-09-23T13:02:04.433Z,20544.00
2022-09-23T13:03:04.357Z,17600.00
2022-09-23T13:04:04.340Z,15708.00
2022-09-23T13:05:04.319Z,15124.00
2022-09-23T13:06:04.304Z,15400.00
2022-09-23T13:07:04.306Z,15016.00
2022-09-23T13:08:04.291Z,14592.00
2022-09-23T13:09:04.271Z,14492.00
2022-09-23T13:10:04.263Z,13916.00
2022-09-23T13:13:58.271Z,14556.00
2022-09-23T13:14:58.238Z,15008.00
2022-09-23T13:15:58.227Z,15556.00
2022-09-23T13:16:58.316Z,15448.00
2022-09-23T13:17:58.221Z,15376.00
2022-09-23T13:18:58.186Z,15180.00
2022-09-23T13:19:58.178Z,14716.00
2022-09-23T13:20:58.167Z,15300.00
2022-09-23T13:21:58.147Z,15812.00
2022-09-23T13:22:58.156Z,18112.00
2022-09-23T13:23:58.126Z,19328.00
2022-09-23T13:24:58.106Z,17696.00
2022-09-23T13:25:58.093Z,13828.00
2022-09-23T13:40:19.745Z,15560.00
2022-09-23T13:44:00.889Z,14792.00
2022-09-23T13:45:00.828Z,15120.00
2022-09-23T13:46:00.832Z,15032.00
2022-09-23T13:47:00.774Z,14964.00
2022-09-23T13:48:00.775Z,14948.00
2022-09-23T13:49:00.749Z,14700.00
2022-09-23T13:50:00.749Z,14348.00
